Burdett, Kansas
Current Conditions -  °F | °C
As of 4:15 PM on Thursday 18 Dec 2014 (Local Time) from KGBD Reporting Station
Overcast Overcast  
Wind Chill: 30°   Ceiling: 2500
Heat Index: 30°   Visibility: 5mi
Dew Point: 25°   Wind: 3mph
Humidity: 80%   Direction: 60°ENE
Pressure: 30.16"   Gusts: NA
Location:  38.19°N, 99.53°W
Report Text: KGBD 182215Z AUTO 06003KT 5SM OVC025 M01/M04 A3016 RMK AO1 P0001
Loading
Personal Weather Stations






























Interactive Weather Map New forecast layout! Learn more

10-Day Weather Forecast

Advertisements
Track Severe Weather on mobile